Time;durP1;ratioP1;P1;durP2;ratioP2;P2;SDS_P1;SDS_P2;PMS_P1;PMS_P2;Temp;Humidity;BMP_temperature;BMP_pressure;BME280_temperature;BME280_humidity;BME280_pressure;Samples;Min_cycle;Max_cycle;Signal;HPM_P1;HPM_P2
2021/09/10 00:01:47;;;;;;;;;17.50;13.50;;;;;20.45;43.96;98617.84;4956413;28;105160;-83
2021/09/10 00:04:14;;;;;;;;;16.50;14.50;;;;;20.42;43.78;98618.41;4923811;28;108907;-83
2021/09/10 00:06:41;;;;;;;;;15.33;13.67;;;;;20.39;43.70;98619.75;4934614;28;102691;-84
2021/09/10 00:09:08;;;;;;;;;16.75;16.00;;;;;20.39;43.92;98628.00;4925747;28;103511;-83
2021/09/10 00:11:35;;;;;;;;;17.00;17.00;;;;;20.37;43.82;98627.44;4939386;28;104998;-83
2021/09/10 00:14:02;;;;;;;;;16.75;15.00;;;;;20.38;43.80;98620.84;4941600;28;106408;-84
2021/09/10 00:16:29;;;;;;;;;20.00;15.25;;;;;20.35;43.88;98624.09;4946018;28;102202;-83
2021/09/10 00:18:56;;;;;;;;;16.25;15.75;;;;;20.32;43.35;98619.16;4940579;28;102576;-83
2021/09/10 00:21:23;;;;;;;;;19.00;16.25;;;;;20.33;43.48;98619.97;4955595;28;102578;-83
2021/09/10 00:23:50;;;;;;;;;19.25;16.00;;;;;20.31;43.39;98622.16;4934239;28;104056;-83
2021/09/10 00:26:17;;;;;;;;;20.00;17.25;;;;;20.28;43.28;98623.47;4957044;28;103239;-83
2021/09/10 00:28:44;;;;;;;;;15.00;14.00;;;;;20.25;43.30;98624.03;4954029;28;102681;-83
2021/09/10 00:31:12;;;;;;;;;18.50;16.50;;;;;20.24;43.34;98627.03;4956157;28;104035;-83
2021/09/10 00:33:39;;;;;;;;;16.75;16.00;;;;;20.21;43.51;98628.38;4939564;28;104093;-83
2021/09/10 00:36:06;;;;;;;;;19.50;15.00;;;;;20.18;43.46;98628.06;4947086;28;102683;-83
2021/09/10 00:38:34;;;;;;;;;18.00;17.50;;;;;20.17;43.34;98627.25;4941888;28;102574;-83
2021/09/10 00:41:01;;;;;;;;;19.50;17.75;;;;;20.13;43.57;98628.84;4955406;28;102500;-83
2021/09/10 00:43:28;;;;;;;;;20.00;17.75;;;;;20.14;43.27;98630.50;4958308;28;104085;-83
2021/09/10 00:45:56;;;;;;;;;17.00;16.25;;;;;20.12;43.50;98629.13;4948494;28;102571;-83
2021/09/10 00:48:23;;;;;;;;;20.25;18.25;;;;;20.10;43.82;98632.13;4946452;28;102538;-83
2021/09/10 00:50:50;;;;;;;;;18.75;18.00;;;;;20.10;43.28;98626.63;4921344;28;104059;-83
2021/09/10 00:53:17;;;;;;;;;16.00;14.50;;;;;20.09;43.23;98630.47;4926166;28;104486;-83
2021/09/10 00:55:47;;;;;;;;;20.75;18.00;;;;;20.07;42.91;98626.34;4953856;28;102707;-83
2021/09/10 00:58:14;;;;;;;;;18.25;17.50;;;;;20.02;43.09;98624.38;4934061;28;105932;-83
2021/09/10 01:00:41;;;;;;;;;19.00;17.75;;;;;20.00;42.72;98621.88;4918691;28;103491;-83
2021/09/10 01:03:09;;;;;;;;;19.75;17.75;;;;;19.98;43.22;98617.75;4914819;28;104318;-83
2021/09/10 01:05:36;;;;;;;;;19.50;16.75;;;;;19.98;43.11;98626.00;4908097;28;102587;-84
2021/09/10 01:08:03;;;;;;;;;21.00;19.00;;;;;19.94;43.00;98636.66;4858624;28;102560;-83
2021/09/10 01:10:30;;;;;;;;;21.67;18.00;;;;;19.94;43.14;98627.59;4935363;28;103350;-83
2021/09/10 01:12:57;;;;;;;;;19.25;16.75;;;;;19.92;42.51;98635.25;4934334;28;104112;-83
2021/09/10 01:15:24;;;;;;;;;19.75;16.25;;;;;19.90;42.90;98631.97;4930322;28;103675;-83
2021/09/10 01:17:51;;;;;;;;;17.00;15.25;;;;;19.90;42.73;98632.75;4955829;28;102393;-83
2021/09/10 01:20:18;;;;;;;;;17.00;17.00;;;;;19.87;42.68;98637.94;4941598;28;102809;-83
2021/09/10 01:22:45;;;;;;;;;19.50;17.00;;;;;19.87;42.62;98637.94;4942390;28;110911;-83
2021/09/10 01:25:13;;;;;;;;;19.25;16.50;;;;;19.85;42.35;98635.47;4964150;28;102176;-83
2021/09/10 01:27:45;;;;;;;;;16.25;15.00;;;;;19.86;42.46;98630.78;4957515;28;102228;-83
2021/09/10 01:30:16;;;;;;;;;15.50;13.25;;;;;19.84;42.54;98632.97;4949998;28;104501;-83
2021/09/10 01:32:43;;;;;;;;;15.75;15.50;;;;;19.81;42.68;98628.81;4956037;28;104315;-83
2021/09/10 01:35:10;;;;;;;;;15.25;14.00;;;;;19.78;42.43;98623.88;4953634;28;105477;-84
2021/09/10 01:37:38;;;;;;;;;13.50;13.50;;;;;19.78;42.32;98639.50;4954115;28;102607;-83
2021/09/10 01:40:06;;;;;;;;;15.25;15.00;;;;;19.77;42.43;98635.13;4953472;28;104015;-83
2021/09/10 01:42:33;;;;;;;;;19.75;18.00;;;;;19.76;42.43;98641.69;4960110;28;104237;-83
2021/09/10 01:45:00;;;;;;;;;17.00;16.00;;;;;19.73;42.23;98636.69;4956227;28;102144;-83
2021/09/10 01:47:27;;;;;;;;;19.50;17.50;;;;;19.72;42.49;98637.81;4968361;28;103176;-84
2021/09/10 01:49:54;;;;;;;;;17.33;15.33;;;;;19.70;42.28;98637.22;4972251;28;103801;-84
2021/09/10 01:52:21;;;;;;;;;14.00;13.33;;;;;19.69;42.40;98636.41;4971729;28;104071;-84
2021/09/10 01:54:47;;;;;;;;;15.00;14.25;;;;;19.68;42.24;98628.44;4962025;28;106475;-84
2021/09/10 01:57:14;;;;;;;;;16.25;14.25;;;;;19.66;42.28;98636.09;4972360;28;103890;-84
2021/09/10 01:59:44;;;;;;;;;16.00;12.75;;;;;19.64;42.03;98638.25;4950961;28;104434;-83
2021/09/10 02:02:11;;;;;;;;;16.67;16.00;;;;;19.62;42.00;98632.22;4959675;28;104089;-84
2021/09/10 02:04:38;;;;;;;;;15.25;13.75;;;;;19.62;42.13;98630.31;4943740;28;102531;-84
2021/09/10 02:07:05;;;;;;;;;19.00;15.00;;;;;19.59;41.97;98637.13;4963326;28;102473;-83
2021/09/10 02:09:33;;;;;;;;;15.00;13.00;;;;;19.58;41.92;98635.47;4963869;28;105475;-84
2021/09/10 02:12:00;;;;;;;;;16.33;15.33;;;;;19.57;42.05;98639.31;4975298;28;104072;-84
2021/09/10 02:14:27;;;;;;;;;16.25;14.00;;;;;19.55;41.66;98635.16;4966290;28;102460;-84
2021/09/10 02:16:54;;;;;;;;;14.50;14.25;;;;;19.54;42.13;98648.03;4973328;28;102270;-84
2021/09/10 02:19:21;;;;;;;;;16.00;13.00;;;;;19.52;41.85;98647.47;4982690;28;103664;-84
2021/09/10 02:21:48;;;;;;;;;13.75;13.00;;;;;19.51;41.99;98644.97;4965924;28;108922;-84
2021/09/10 02:24:15;;;;;;;;;17.75;16.75;;;;;19.49;42.16;98642.53;4972759;27;102527;-84
2021/09/10 02:26:42;;;;;;;;;14.75;13.00;;;;;19.50;41.86;98643.31;4971437;28;102190;-84
2021/09/10 02:29:09;;;;;;;;;11.00;10.00;;;;;19.48;41.75;98649.09;4969170;28;104651;-84
2021/09/10 02:31:36;;;;;;;;;14.50;14.50;;;;;19.47;41.70;98644.69;4973816;28;103828;-84
2021/09/10 02:34:03;;;;;;;;;14.00;13.50;;;;;19.46;41.56;98647.66;4971667;28;104213;-84
2021/09/10 02:36:30;;;;;;;;;20.25;16.50;;;;;19.44;41.77;98653.44;4965749;28;102466;-84
2021/09/10 02:38:57;;;;;;;;;12.33;11.67;;;;;19.42;41.66;98641.84;4972101;28;102398;-84
2021/09/10 02:41:24;;;;;;;;;16.50;14.25;;;;;19.42;41.52;98641.00;4973294;28;104042;-84
2021/09/10 02:43:51;;;;;;;;;15.00;13.75;;;;;19.41;41.58;98637.44;4969865;28;102602;-83
2021/09/10 02:46:18;;;;;;;;;16.00;15.00;;;;;19.39;41.23;98636.88;4976850;28;102562;-84
2021/09/10 02:48:45;;;;;;;;;18.00;15.00;;;;;19.36;41.42;98637.38;4974991;27;102255;-84
2021/09/10 02:51:12;;;;;;;;;15.75;13.00;;;;;19.34;41.60;98639.56;4971573;28;104836;-83
2021/09/10 02:53:38;;;;;;;;;16.00;15.00;;;;;19.32;41.38;98636.22;4977780;28;102920;-84
2021/09/10 02:56:05;;;;;;;;;16.75;14.50;;;;;19.31;41.51;98631.84;4972612;28;102563;-84
2021/09/10 02:58:32;;;;;;;;;15.00;15.00;;;;;19.29;41.40;98624.94;4969119;28;106158;-84
2021/09/10 03:00:59;;;;;;;;;17.50;16.50;;;;;19.27;41.25;98633.47;4971366;28;105015;-84
2021/09/10 03:03:27;;;;;;;;;17.50;13.50;;;;;19.26;41.12;98634.53;4965787;28;103687;-84
2021/09/10 03:05:56;;;;;;;;;14.75;14.00;;;;;19.23;41.13;98621.31;4974881;28;103224;-84
2021/09/10 03:08:23;;;;;;;;;15.75;14.25;;;;;19.23;41.26;98629.53;4980917;28;103764;-84
2021/09/10 03:10:50;;;;;;;;;15.00;15.00;;;;;19.24;40.99;98636.69;4969064;28;108898;-83
2021/09/10 03:13:17;;;;;;;;;17.25;15.25;;;;;19.20;41.10;98638.28;4970529;27;103092;-83
2021/09/10 03:15:44;;;;;;;;;15.25;15.25;;;;;19.18;41.12;98635.00;4975365;28;102525;-84
2021/09/10 03:18:11;;;;;;;;;19.50;17.50;;;;;19.17;40.83;98634.16;4962479;28;102465;-84
2021/09/10 03:20:38;;;;;;;;;19.00;17.00;;;;;19.16;41.11;98637.16;4970437;28;104486;-84
2021/09/10 03:23:05;;;;;;;;;16.50;14.00;;;;;19.14;41.16;98633.81;4974650;28;102683;-83
2021/09/10 03:25:32;;;;;;;;;16.75;16.00;;;;;19.12;41.00;98631.34;4971104;28;102169;-83
2021/09/10 03:27:59;;;;;;;;;16.75;14.75;;;;;19.13;40.98;98630.28;4967483;28;102905;-83
2021/09/10 03:30:26;;;;;;;;;16.50;15.25;;;;;19.12;40.89;98630.53;4971438;28;104173;-83
2021/09/10 03:32:53;;;;;;;;;16.75;16.00;;;;;19.09;40.87;98620.88;4965573;28;104943;-84
2021/09/10 03:35:19;;;;;;;;;20.50;18.00;;;;;19.09;41.08;98628.31;4970360;28;102705;-83
2021/09/10 03:37:47;;;;;;;;;12.75;12.75;;;;;19.08;40.64;98634.84;4966517;28;105372;-83
2021/09/10 03:40:14;;;;;;;;;16.00;15.25;;;;;19.04;40.71;98628.22;4973912;28;104077;-83
2021/09/10 03:42:41;;;;;;;;;17.00;15.00;;;;;19.01;40.72;98624.06;4960861;28;102501;-83
2021/09/10 03:45:09;;;;;;;;;19.50;17.75;;;;;19.00;40.53;98624.34;4968744;28;102622;-84
2021/09/10 03:47:36;;;;;;;;;15.75;15.25;;;;;18.99;40.62;98630.91;4974207;28;102651;-83
2021/09/10 03:50:03;;;;;;;;;16.00;14.00;;;;;18.97;40.60;98627.56;4964781;28;105531;-83
2021/09/10 03:52:30;;;;;;;;;19.25;16.75;;;;;18.98;40.98;98629.25;4973492;28;102205;-83
2021/09/10 03:54:56;;;;;;;;;11.50;10.50;;;;;18.96;40.45;98625.91;4974074;28;103625;-83
2021/09/10 03:57:23;;;;;;;;;14.75;13.75;;;;;18.94;40.81;98628.09;4964558;28;104897;-83
2021/09/10 03:59:50;;;;;;;;;15.00;14.00;;;;;18.94;40.51;98633.56;4971970;28;109981;-83
2021/09/10 04:02:17;;;;;;;;;15.50;14.25;;;;;18.89;40.89;98633.50;4971050;28;102175;-83
2021/09/10 04:04:44;;;;;;;;;12.50;11.25;;;;;18.90;40.55;98632.44;4954620;28;102974;-83
2021/09/10 04:07:11;;;;;;;;;17.50;15.50;;;;;18.90;40.69;98627.78;4958910;28;102219;-83
2021/09/10 04:09:38;;;;;;;;;14.25;14.00;;;;;18.91;40.17;98631.34;4968116;28;104070;-84
2021/09/10 04:12:05;;;;;;;;;21.75;16.50;;;;;18.86;40.30;98626.63;4963915;28;102728;-83
2021/09/10 04:14:32;;;;;;;;;16.00;14.25;;;;;18.86;40.56;98631.28;4971770;28;103905;-83
2021/09/10 04:16:59;;;;;;;;;10.75;10.00;;;;;18.84;40.01;98628.78;4979795;28;102552;-83
2021/09/10 04:19:26;;;;;;;;;17.25;15.50;;;;;18.82;40.50;98627.41;4965347;28;104258;-84
2021/09/10 04:21:53;;;;;;;;;14.75;14.00;;;;;18.81;40.38;98620.25;4974698;27;102636;-84
2021/09/10 04:24:19;;;;;;;;;15.00;14.00;;;;;18.79;40.22;98628.72;4962318;28;102437;-83
2021/09/10 04:26:46;;;;;;;;;18.75;14.00;;;;;18.76;40.89;98620.19;4947435;28;103760;-83
2021/09/10 04:29:13;;;;;;;;;15.00;14.75;;;;;18.75;40.73;98640.44;4947394;28;104089;-83
2021/09/10 04:31:40;;;;;;;;;14.75;13.00;;;;;18.75;40.42;98640.44;4956110;28;102636;-83
2021/09/10 04:34:09;;;;;;;;;16.50;15.25;;;;;18.71;40.83;98640.94;4948178;28;102655;-83
2021/09/10 04:36:36;;;;;;;;;15.25;14.00;;;;;18.70;40.71;98638.44;4957685;28;102593;-83
2021/09/10 04:39:03;;;;;;;;;19.00;15.50;;;;;18.73;39.97;98637.97;4947618;28;104322;-83
2021/09/10 04:41:30;;;;;;;;;14.50;13.00;;;;;18.70;40.19;98639.28;4959196;28;102253;-83
2021/09/10 04:43:58;;;;;;;;;15.00;13.00;;;;;18.69;40.40;98634.88;4943960;28;102658;-83
2021/09/10 04:46:25;;;;;;;;;15.25;14.00;;;;;18.67;39.95;98639.78;4955572;28;104304;-83
2021/09/10 04:48:52;;;;;;;;;16.00;15.25;;;;;18.71;39.78;98637.38;4954553;28;108830;-83
2021/09/10 04:51:19;;;;;;;;;16.75;15.25;;;;;18.68;40.34;98644.19;4951918;28;102774;-83
2021/09/10 04:53:46;;;;;;;;;18.00;16.00;;;;;18.64;40.07;98645.75;4950834;28;102673;-83
2021/09/10 04:56:13;;;;;;;;;18.25;15.75;;;;;18.60;40.15;98643.78;4957612;28;102504;-83
2021/09/10 04:58:40;;;;;;;;;15.00;13.00;;;;;18.60;39.88;98649.25;4961830;28;104186;-83
2021/09/10 05:01:07;;;;;;;;;18.00;14.00;;;;;18.58;40.24;98649.53;4957275;28;102563;-83
2021/09/10 05:03:34;;;;;;;;;14.00;10.25;;;;;18.56;39.97;98654.41;4963729;28;102183;-83
2021/09/10 05:06:02;;;;;;;;;15.75;14.00;;;;;18.57;40.38;98650.59;4963355;28;102649;-83
2021/09/10 05:08:29;;;;;;;;;18.00;16.00;;;;;18.57;39.88;98653.31;4962592;28;104244;-83
2021/09/10 05:10:55;;;;;;;;;13.25;12.25;;;;;18.60;40.27;98647.34;4968244;28;102415;-83
2021/09/10 05:13:22;;;;;;;;;12.50;11.75;;;;;18.60;39.67;98654.72;4964990;28;102756;-83
2021/09/10 05:15:49;;;;;;;;;13.25;12.50;;;;;18.56;39.80;98648.94;4963388;28;102686;-83
2021/09/10 05:18:17;;;;;;;;;14.00;13.25;;;;;18.53;40.02;98645.88;4969623;28;104103;-82
2021/09/10 05:20:46;;;;;;;;;14.25;13.25;;;;;18.52;40.26;98653.22;4964367;28;102668;-83
2021/09/10 05:23:13;;;;;;;;;18.00;16.00;;;;;18.50;40.28;98657.31;4950580;28;102624;-83
2021/09/10 05:25:40;;;;;;;;;17.50;15.50;;;;;18.49;40.20;98652.91;4961863;28;102261;-83
2021/09/10 05:28:07;;;;;;;;;14.75;14.25;;;;;18.48;40.03;98652.06;4944859;28;104153;-82
2021/09/10 05:30:34;;;;;;;;;15.00;15.00;;;;;18.45;40.37;98651.75;4948965;28;102338;-82
2021/09/10 05:33:01;;;;;;;;;16.50;13.25;;;;;18.46;39.95;98648.72;4953990;28;102907;-82
2021/09/10 05:35:28;;;;;;;;;14.50;14.00;;;;;18.45;40.23;98649.84;4945840;28;102450;-82
2021/09/10 05:37:55;;;;;;;;;14.00;13.25;;;;;18.44;40.31;98645.44;4954706;28;104067;-82
2021/09/10 05:40:22;;;;;;;;;15.50;13.00;;;;;18.45;39.87;98652.56;4949178;28;103167;-82
2021/09/10 05:42:49;;;;;;;;;14.00;12.50;;;;;18.43;40.57;98651.97;4935333;28;103613;-82
2021/09/10 05:45:16;;;;;;;;;14.00;13.00;;;;;18.43;39.84;98651.97;4954276;28;102203;-84
2021/09/10 05:47:43;;;;;;;;;15.75;15.00;;;;;18.44;40.09;98656.38;4962078;28;104038;-82
2021/09/10 05:50:10;;;;;;;;;13.00;12.00;;;;;18.42;40.48;98655.78;4951236;28;102455;-83
2021/09/10 05:52:37;;;;;;;;;18.00;16.00;;;;;18.42;40.54;98649.47;4960727;28;102115;-82
2021/09/10 05:55:05;;;;;;;;;15.00;14.50;;;;;18.43;40.80;98659.38;4960921;28;102413;-82
2021/09/10 05:57:33;;;;;;;;;13.25;12.75;;;;;18.43;40.59;98662.09;4957860;28;104040;-81
2021/09/10 05:59:59;;;;;;;;;15.75;13.25;;;;;18.40;40.32;98657.97;4953232;28;102220;-84
2021/09/10 06:02:26;;;;;;;;;15.00;14.25;;;;;18.37;40.10;98655.72;4954000;28;102573;-84
2021/09/10 06:04:54;;;;;;;;;14.75;14.00;;;;;18.35;40.65;98660.63;4948870;28;102544;-84
2021/09/10 06:07:20;;;;;;;;;14.00;12.75;;;;;18.32;40.82;98663.03;4960836;28;104124;-84
2021/09/10 06:09:47;;;;;;;;;15.00;13.75;;;;;18.30;41.03;98652.31;4957282;28;103724;-85
2021/09/10 06:12:14;;;;;;;;;16.00;13.50;;;;;18.32;41.01;98663.03;4948236;28;103280;-85
2021/09/10 06:14:41;;;;;;;;;15.50;14.25;;;;;18.32;40.61;98661.13;4931596;28;102299;-85
2021/09/10 06:17:08;;;;;;;;;14.75;12.25;;;;;18.32;41.10;98663.03;4947384;28;104112;-85
2021/09/10 06:19:35;;;;;;;;;16.25;15.25;;;;;18.30;41.58;98660.53;4958742;28;102693;-84
2021/09/10 06:22:02;;;;;;;;;11.75;11.25;;;;;18.33;41.27;98662.75;4955878;28;104279;-85
2021/09/10 06:24:29;;;;;;;;;12.00;11.00;;;;;18.34;41.05;98667.16;4968648;28;102690;-84
2021/09/10 06:26:58;;;;;;;;;11.00;10.00;;;;;18.39;41.60;98664.50;4971924;28;104058;-85
2021/09/10 06:29:25;;;;;;;;;13.50;13.00;;;;;18.39;41.53;98667.25;4972924;28;102786;-84
2021/09/10 06:31:52;;;;;;;;;12.50;11.25;;;;;18.39;41.41;98671.91;4959313;28;102481;-84
2021/09/10 06:34:21;;;;;;;;;13.75;12.00;;;;;18.37;41.42;98668.59;4983729;28;102404;-84
2021/09/10 06:36:48;;;;;;;;;12.50;11.75;;;;;18.37;42.22;98665.84;4966114;28;103631;-84
2021/09/10 06:39:16;;;;;;;;;13.50;12.25;;;;;18.37;41.70;98665.84;4965810;28;103476;-84
2021/09/10 06:41:43;;;;;;;;;11.75;11.00;;;;;18.39;41.48;98670.00;4955163;28;103101;-84
2021/09/10 06:44:10;;;;;;;;;13.00;12.00;;;;;18.36;41.90;98667.75;4976594;28;102785;-84
2021/09/10 06:46:37;;;;;;;;;14.50;14.50;;;;;18.36;41.80;98670.50;4965859;27;104211;-84
2021/09/10 06:49:04;;;;;;;;;14.75;12.25;;;;;18.35;42.09;98679.78;4983335;28;103376;-84
2021/09/10 06:51:30;;;;;;;;;14.00;11.50;;;;;18.36;42.48;98666.94;4970247;28;102563;-84
2021/09/10 06:53:57;;;;;;;;;10.75;8.75;;;;;18.40;42.81;98676.31;4972896;28;103329;-86
2021/09/10 06:56:24;;;;;;;;;13.50;13.25;;;;;18.42;42.49;98674.97;4968803;28;104017;-88
2021/09/10 06:59:07;;;;;;;;;12.00;8.75;;;;;18.45;43.01;98687.34;4951682;28;102439;-88
2021/09/10 07:01:35;;;;;;;;;12.50;10.00;;;;;18.47;42.83;98680.53;4970684;28;102286;-88
2021/09/10 07:04:02;;;;;;;;;13.75;11.50;;;;;18.48;42.83;98690.41;4965525;28;102895;-88
2021/09/10 07:06:30;;;;;;;;;10.50;9.75;;;;;18.51;42.63;98689.88;4961457;28;104010;-88
2021/09/10 07:08:57;;;;;;;;;13.50;12.00;;;;;18.50;43.01;98693.72;4964999;28;102582;-88
2021/09/10 07:11:24;;;;;;;;;12.00;11.00;;;;;18.50;42.70;98701.94;4970769;28;102496;-88
2021/09/10 07:13:51;;;;;;;;;9.00;9.00;;;;;18.52;43.16;98696.19;4964823;28;102657;-88
2021/09/10 07:16:17;;;;;;;;;10.75;9.25;;;;;18.52;42.90;98697.03;4970610;28;104113;-88
2021/09/10 07:18:44;;;;;;;;;12.25;10.25;;;;;18.54;43.53;98689.44;4964775;28;102547;-88
2021/09/10 07:21:11;;;;;;;;;9.00;8.50;;;;;18.57;43.61;98694.41;4973020;28;102215;-88
2021/09/10 07:23:38;;;;;;;;;9.25;8.25;;;;;18.57;43.21;98696.31;4966145;28;104994;-88
2021/09/10 07:26:05;;;;;;;;;9.50;9.50;;;;;18.59;43.59;98692.25;4970872;28;104342;-88
2021/09/10 07:28:33;;;;;;;;;9.00;8.75;;;;;18.60;43.13;98693.91;4971692;27;102146;-87
2021/09/10 07:31:01;;;;;;;;;10.75;10.75;;;;;18.61;43.06;98694.72;4971894;27;102581;-87
2021/09/10 07:33:28;;;;;;;;;12.50;9.75;;;;;18.63;43.63;98687.09;4971980;28;104820;-86
2021/09/10 07:35:56;;;;;;;;;7.75;7.75;;;;;18.65;43.53;98693.97;4957754;28;104382;-88
2021/09/10 07:38:23;;;;;;;;;8.00;7.33;;;;;18.66;43.77;98692.91;4969612;28;102379;-89
2021/09/10 07:40:50;;;;;;;;;10.00;9.00;;;;;18.68;44.18;98696.25;4953860;28;102370;-88
2021/09/10 07:43:17;;;;;;;;;9.00;8.00;;;;;18.69;43.87;98692.41;4967556;28;102316;-87
2021/09/10 07:45:43;;;;;;;;;8.75;8.00;;;;;18.71;43.74;98697.63;4966502;28;104494;-88
2021/09/10 07:48:10;;;;;;;;;8.33;7.00;;;;;18.71;44.37;98693.00;4957239;28;102716;-88
2021/09/10 07:50:37;;;;;;;;;7.00;7.00;;;;;18.73;43.90;98695.50;4968139;28;102840;-87
2021/09/10 07:53:04;;;;;;;;;8.50;8.00;;;;;18.78;43.80;98705.69;4969592;28;102482;-89
2021/09/10 08:01:41;;;;;;;;;7.33;7.00;;;;;18.84;44.62;98704.66;4917444;28;102659;-89
2021/09/10 08:04:08;;;;;;;;;6.67;6.67;;;;;18.86;44.35;98708.00;4912862;28;102633;-88
2021/09/10 08:06:36;;;;;;;;;7.00;6.00;;;;;18.88;44.17;98703.91;4903047;28;104170;-88
2021/09/10 08:09:04;;;;;;;;;7.67;7.00;;;;;18.92;44.23;98716.03;4909619;28;102728;-88
2021/09/10 08:11:33;;;;;;;;;7.67;7.67;;;;;18.92;44.66;98707.81;4899296;28;102533;-88
2021/09/10 08:14:02;;;;;;;;;7.00;6.67;;;;;18.95;44.15;98709.22;4897253;28;102596;-88
2021/09/10 08:16:29;;;;;;;;;8.67;8.00;;;;;18.96;44.79;98719.06;4912481;28;104686;-88
2021/09/10 08:18:56;;;;;;;;;10.33;7.67;;;;;18.97;44.38;98704.31;4905221;28;102074;-88
2021/09/10 08:21:39;;;;;;;;;9.00;8.00;;;;;18.97;44.68;98701.56;4907373;28;102773;-88
2021/09/10 08:24:09;;;;;;;;;7.33;6.67;;;;;18.98;44.48;98708.72;4909940;28;102609;-88
2021/09/10 08:26:36;;;;;;;;;7.33;6.67;;;;;19.01;44.58;98699.97;4905184;28;104057;-88
2021/09/10 08:29:03;;;;;;;;;8.00;7.00;;;;;19.03;44.54;98706.03;4906135;28;102250;-88
2021/09/10 08:31:30;;;;;;;;;8.00;8.00;;;;;19.05;44.79;98701.13;4911647;28;102469;-87
2021/09/10 08:33:57;;;;;;;;;7.00;5.67;;;;;19.08;44.55;98700.63;4911236;28;102430;-88
2021/09/10 08:36:24;;;;;;;;;7.00;7.00;;;;;19.10;44.08;98698.44;4900434;28;110171;-88
2021/09/10 08:38:51;;;;;;;;;6.00;6.00;;;;;19.11;44.26;98690.00;4899958;28;102780;-88
2021/09/10 08:41:19;;;;;;;;;6.00;5.00;;;;;19.14;44.29;98694.94;4901250;28;102369;-88
2021/09/10 08:43:47;;;;;;;;;7.33;6.00;;;;;19.14;44.08;98697.69;4900652;28;102630;-88
2021/09/10 08:46:15;;;;;;;;;7.00;7.00;;;;;19.16;44.03;98703.78;4908694;28;104045;-89
2021/09/10 08:48:45;;;;;;;;;6.33;5.67;;;;;19.18;44.33;98695.31;4907396;28;102295;-89
2021/09/10 08:51:13;;;;;;;;;8.00;7.67;;;;;19.19;43.82;98696.94;4909862;28;103210;-89
2021/09/10 08:53:40;;;;;;;;;6.67;6.00;;;;;19.20;44.16;98698.59;4903326;28;103078;-88
2021/09/10 08:56:07;;;;;;;;;7.00;6.33;;;;;19.21;44.19;98700.25;4902927;28;104125;-89
2021/09/10 08:58:34;;;;;;;;;6.00;6.00;;;;;19.24;44.33;98701.66;4912927;28;102616;-88
2021/09/10 09:01:02;;;;;;;;;7.00;6.00;;;;;19.23;44.23;98695.34;4901676;28;102458;-87
2021/09/10 09:03:30;;;;;;;;;6.00;5.00;;;;;19.25;44.60;98700.56;4902215;28;109401;-89
2021/09/10 09:05:58;;;;;;;;;6.67;6.00;;;;;19.26;43.86;98707.72;4905532;28;108857;-89
2021/09/10 09:08:25;;;;;;;;;7.33;6.00;;;;;19.27;44.10;98696.50;4887837;28;102648;-88
2021/09/10 09:11:02;;;;;;;;;6.00;6.00;;;;;19.29;44.12;98701.72;4900009;28;102682;-88
2021/09/10 09:13:34;;;;;;;;;8.00;6.00;;;;;19.31;44.07;98699.56;4885287;28;102679;-88
2021/09/10 09:16:25;;;;;;;;;3.33;3.33;;;;;19.32;44.21;98707.53;4879098;28;109120;-88
2021/09/10 09:19:13;;;;;;;;;7.00;6.00;;;;;19.34;44.28;98704.53;4899802;28;102489;-88
2021/09/10 09:21:41;;;;;;;;;5.67;5.00;;;;;19.32;44.49;98702.03;4895571;28;102498;-88
2021/09/10 09:24:15;;;;;;;;;7.00;5.67;;;;;19.35;44.45;98695.22;4899220;28;102438;-89
2021/09/10 09:26:42;;;;;;;;;6.67;6.00;;;;;19.36;44.45;98696.91;4897412;28;104423;-88
2021/09/10 09:29:12;;;;;;;;;5.33;5.00;;;;;19.36;44.24;98696.91;4893683;28;102319;-88
2021/09/10 09:31:39;;;;;;;;;6.33;6.33;;;;;19.37;44.23;98693.88;4889260;28;103006;-89
2021/09/10 09:34:06;;;;;;;;;5.00;5.00;;;;;19.37;44.27;98687.56;4896925;28;103640;-89
2021/09/10 09:36:34;;;;;;;;;6.00;5.33;;;;;19.40;44.43;98687.91;4884636;28;104051;-89
2021/09/10 09:39:11;;;;;;;;;6.33;6.00;;;;;19.41;44.44;98692.28;4880297;28;102273;-88
2021/09/10 09:41:43;;;;;;;;;6.00;5.00;;;;;19.43;44.51;98687.41;4889539;28;102376;-88
2021/09/10 09:44:14;;;;;;;;;6.00;5.00;;;;;19.43;44.44;98678.31;4893305;28;102655;-89
2021/09/10 09:46:41;;;;;;;;;5.00;5.00;;;;;19.44;44.50;98685.50;4889393;28;104173;-88
2021/09/10 09:49:09;;;;;;;;;5.67;3.67;;;;;19.45;44.42;98682.47;4883643;28;102209;-88
2021/09/10 09:51:58;;;;;;;;;5.67;4.67;;;;;19.48;44.49;98678.41;4888343;28;102172;-88
2021/09/10 09:54:28;;;;;;;;;5.00;5.00;;;;;19.49;44.30;98680.09;4898284;28;102661;-89
2021/09/10 09:56:55;;;;;;;;;5.67;5.00;;;;;19.50;44.43;98677.06;4884766;28;109007;-89
2021/09/10 09:59:22;;;;;;;;;8.00;6.33;;;;;19.49;44.42;98678.16;4879559;28;102809;-88
2021/09/10 10:01:49;;;;;;;;;5.00;5.00;;;;;19.50;44.54;98674.31;4894992;28;102627;-88
2021/09/10 10:04:16;;;;;;;;;5.33;4.00;;;;;19.51;44.59;98672.41;4903348;28;102532;-88
2021/09/10 10:06:43;;;;;;;;;5.00;4.00;;;;;19.52;44.63;98665.84;4888487;28;104108;-88
2021/09/10 10:09:13;;;;;;;;;6.00;6.00;;;;;19.53;44.78;98671.09;4888293;28;111928;-89
2021/09/10 10:12:06;;;;;;;;;5.00;5.00;;;;;19.55;44.52;98674.38;4874002;28;102337;-89
2021/09/10 10:14:36;;;;;;;;;5.00;5.00;;;;;19.56;44.65;98681.53;4879539;28;102765;-89
2021/09/10 10:17:04;;;;;;;;;5.00;5.00;;;;;19.57;44.57;98677.72;4894652;28;104120;-88
2021/09/10 10:19:33;;;;;;;;;5.00;5.00;;;;;19.59;44.42;98677.44;4879556;28;111870;-87
2021/09/10 10:22:02;;;;;;;;;6.00;5.00;;;;;19.57;44.80;98666.75;4883435;28;102495;-89
2021/09/10 10:24:42;;;;;;;;;6.00;6.00;;;;;19.61;44.56;98667.03;4876203;28;103374;-89
2021/09/10 10:27:33;;;;;;;;;6.00;6.00;;;;;19.62;44.74;98668.72;4874288;28;109006;-88
2021/09/10 10:30:19;;;;;;;;;5.00;5.00;;;;;19.64;44.81;98661.03;4887377;28;103806;-88
2021/09/10 10:32:51;;;;;;;;;6.33;6.00;;;;;19.65;44.69;98662.69;4888942;28;105749;-88
2021/09/10 10:35:25;;;;;;;;;6.33;5.00;;;;;19.66;44.74;98663.53;4898539;28;102238;-89
2021/09/10 10:38:05;;;;;;;;;6.00;6.00;;;;;19.69;44.78;98668.50;4881173;28;104250;-89
2021/09/10 10:40:42;;;;;;;;;5.00;5.00;;;;;19.69;44.54;98660.25;4885052;28;102743;-87
2021/09/10 10:43:28;;;;;;;;;6.00;6.00;;;;;19.70;44.89;98649.03;4896430;28;102771;-87
2021/09/10 10:46:04;;;;;;;;;4.00;4.00;;;;;19.73;44.98;98655.91;4894615;28;102228;-88
2021/09/10 10:48:33;;;;;;;;;5.33;5.00;;;;;19.73;44.50;98654.00;4883339;28;109181;-87
2021/09/10 10:51:20;;;;;;;;;5.33;5.33;;;;;19.75;44.76;98651.00;4883415;28;105210;-87
2021/09/10 10:53:46;;;;;;;;;5.00;5.00;;;;;19.75;44.87;98651.84;4887734;28;105276;-88
2021/09/10 10:56:29;;;;;;;;;7.33;5.33;;;;;19.77;44.89;98654.34;4885476;28;104394;-88
2021/09/10 10:59:14;;;;;;;;;7.00;6.67;;;;;19.78;44.93;98645.81;4878826;28;104091;-88
2021/09/10 11:02:22;;;;;;;;;4.67;4.67;;;;;19.80;44.68;98645.56;4869275;28;102548;-88
2021/09/10 11:04:50;;;;;;;;;6.00;5.00;;;;;19.80;45.01;98637.34;4857348;28;102554;-88
2021/09/10 11:07:20;;;;;;;;;7.00;6.00;;;;;19.83;44.98;98636.81;4871258;28;102729;-88
2021/09/10 11:09:59;;;;;;;;;7.33;6.67;;;;;19.84;46.22;98636.56;4873068;28;104269;-88
2021/09/10 11:12:26;;;;;;;;;8.00;8.00;;;;;19.85;45.73;98638.22;4867913;28;103156;-88
2021/09/10 11:14:53;;;;;;;;;9.33;9.00;;;;;19.85;45.34;98630.00;4871995;28;102504;-90
2021/09/10 11:17:26;;;;;;;;;9.00;8.00;;;;;19.88;45.15;98634.13;4872899;28;102632;-87
2021/09/10 11:19:57;;;;;;;;;7.33;7.33;;;;;19.88;45.23;98629.47;4876992;28;104159;-87
2021/09/10 11:22:24;;;;;;;;;5.00;5.00;;;;;19.91;45.41;98630.84;4870371;28;102691;-87
2021/09/10 11:25:07;;;;;;;;;7.00;7.00;;;;;19.92;45.41;98624.28;4876325;28;102606;-88
2021/09/10 11:27:38;;;;;;;;;6.00;5.00;;;;;19.94;45.11;98619.38;4855540;28;102253;-87